Nearby METAR Reports

 

EGVO - Odiham Raf, United Kingdom
Distance from station: ESE 6mi, 10km
Updated: Wed, 17-Oct-2018 06:50 BST
Light drizzle, Mostly cloudy
Light drizzle, Mostly cloudy
 Wind from SSW
Wind: SSW 8 mph , 13 km/h
Temperature: 54°F , 12°C
Dew Point: 52°F , 11°C
Humidity: 94%
Barometer: 30.03 inHg , 1017 hPa
Summary: Light Drizzle
Clouds: Mostly Cloudy
Visibility: 4 miles , 7 km
Cloud details: Partly Cloudy 2000 ft
Mostly Cloudy 3000 ft
2018/10/17 05:50 EGVO 170550Z 21007KT 7000 -DZ SCT020 BKN030 12/11 Q1017 WHT
EGLF - Farnborough, United Kingdom
Distance from station: E 14mi, 22km
Updated: Wed, 17-Oct-2018 06:50 BST
Light drizzle, Mostly cloudy
Light drizzle, Mostly cloudy
 Wind from SSE
Wind: SSE 5 mph , 7 km/h
Temperature: 54°F , 12°C
Dew Point: 52°F , 11°C
Humidity: 94%
Barometer: 30.03 inHg , 1017 hPa
Summary: Light Drizzle
Clouds: Mostly Cloudy
Visibility: 4 miles , 6 km
Cloud details: Few Clouds 300 ft
Mostly Cloudy 900 ft
2018/10/17 05:50 EGLF 170550Z 16004KT 6000 -DZ FEW003 BKN009 12/11 Q1017 REDZ
 
EGVP - Middle Wallop, United Kingdom
Distance from station: WSW 23mi, 36km
Updated: Wed, 17-Oct-2018 06:50 BST
Mist, Mostly cloudy
Mist, Mostly cloudy
 Wind from SSE
Wind: SSE 3 mph , 6 km/h
Temperature: 52°F , 11°C
Dew Point: 52°F , 11°C
Humidity: 100%
Barometer: 30.03 inHg , 1017 hPa
Summary: Mist
Clouds: Mostly Cloudy
Visibility: 3 miles , 5 km
Cloud details: Few Clouds 200 ft
Mostly Cloudy 300 ft
2018/10/17 05:50 EGVP 170550Z 15003KT 5000 BR FEW002 BKN003 11/11 Q1017 YLO2
EGHI - Southampton Wx C, United Kingdom
Distance from station: SSW 24mi, 39km
Updated: Wed, 17-Oct-2018 06:50 BST
Light drizzle, Mostly cloudy
Light drizzle, Mostly cloudy
 Wind from varies
Wind: varies 1 mph , 2 km/h
Temperature: 52°F , 11°C
Dew Point: 52°F , 11°C
Humidity: 100%
Barometer: 30.03 inHg , 1017 hPa
Summary: Light Drizzle
Clouds: Mostly Cloudy
Visibility: 4 miles , 7 km
Cloud details: Few Clouds 500 ft
Mostly Cloudy 1500 ft
2018/10/17 05:50 EGHI 170550Z VRB01KT 7000 -DZ FEW005 BKN015 11/11 Q1017
 
EGUB - Benson Raf, United Kingdom
Distance from station: N 24mi, 39km
Updated: Wed, 17-Oct-2018 06:50 BST
Light rain, Drizzle, Mostly cloudy
Light rain, Drizzle, Mostly cloudy
 Wind from S
Wind: S 6 mph , 9 km/h
Temperature: 54°F , 12°C
Dew Point: 54°F , 12°C
Humidity: 100%
Barometer: 30.03 inHg , 1017 hPa
Summary: Light rain, Drizzle
Clouds: Mostly Cloudy
Visibility: 6 miles , 9 km
Cloud details: Mostly Cloudy 800 ft
Mostly Cloudy 1200 ft
2018/10/17 05:50 EGUB 170550Z 17005KT 9000 -RADZ BKN008 BKN012 12/12 Q1017 GRN TEMPO 4000 RADZ BKN005 YLO1
EGDM - Boscombe Down, United Kingdom
Distance from station: WSW 29mi, 47km
Updated: Wed, 17-Oct-2018 06:50 BST
Light drizzle, Overcast
Light drizzle, Overcast
 Wind from S
Wind: S 2 mph , 4 km/h
Temperature: 54°F , 12°C
Dew Point: 54°F , 12°C
Humidity: 100%
Barometer: 30.03 inHg , 1017 hPa
Summary: Light Drizzle
Clouds: Overcast
Visibility: 2 miles , 3 km
Cloud details: Overcast 200 ft
2018/10/17 05:50 EGDM 170550Z 18002KT 2500 -DZ OVC002 12/12 Q1017 AMB
 
EGLL - London/Heathrow, United Kingdom
Distance from station: ENE 31mi, 51km
Updated: Wed, 17-Oct-2018 06:50 BST
Light rain, Mostly cloudy
Light rain, Mostly cloudy
 Wind from S
Wind: S 6 mph , 9 km/h
Temperature: 54°F , 12°C
Dew Point: 52°F , 11°C
Humidity: 94%
Barometer: 30.06 inHg , 1018 hPa
Summary: Light Rain
Clouds: Mostly Cloudy
Visibility: 6 miles , 10 km
Cloud details: Few Clouds 1300 ft
Mostly Cloudy 2200 ft
Mostly Cloudy 2900 ft
2018/10/17 05:50 EGLL 170550Z AUTO 19005KT 160V240 9999 -RA FEW013 BKN022 BKN029 12/11 Q1018 TEMPO BKN012
EGWU - Northolt Raf, United Kingdom
Distance from station: NE 35mi, 56km
Updated: Wed, 17-Oct-2018 06:50 BST
Light drizzle, Overcast
Light drizzle, Overcast
 Wind from SSW
Wind: SSW 3 mph , 6 km/h
Temperature: 54°F , 12°C
Dew Point: 52°F , 11°C
Humidity: 94%
Barometer: 30.03 inHg , 1017 hPa
Summary: Light Drizzle
Clouds: Overcast
Visibility: 6 miles , 10 km
Cloud details: Few Clouds 1300 ft
Partly Cloudy 2000 ft
Overcast 3600 ft
2018/10/17 05:50 EGWU 170550Z 20003KT 9999 7000NW -DZ FEW013 SCT020 OVC036 12/11 Q1017 WHT BECMG SCT012 BKN018 GRN
 
EGVA - Fairford Raf, United Kingdom
Distance from station: NW 40mi, 65km
Updated: Wed, 17-Oct-2018 06:26 BST
Overcast
Overcast
 Wind from WSW
Wind: WSW 5 mph , 7 km/h
Temperature: 54°F , 12°C
Dew Point: 54°F , 12°C
Humidity: 100%
Barometer: 30.02 inHg , 1016.6 hPa
Clouds: Overcast
Visibility: 6 miles , 10 km
Cloud details: Overcast 500 ft
2018/10/17 05:26 EGVA 170526Z AUTO 25004KT 9999 OVC005 12/12 A3002 RMK AO2 SLP169 $
EGKK - London/Gatwick A, United Kingdom
Distance from station: ESE 41mi, 66km
Updated: Wed, 17-Oct-2018 06:50 BST
Shallow fog, Few clouds
Shallow fog, Few clouds
 Wind from varies
Wind: varies 2 mph , 4 km/h
Temperature: 46°F , 8°C
Dew Point: 46°F , 8°C
Humidity: 100%
Barometer: 30.06 inHg , 1018 hPa
Summary: Shallow Fog
Clouds: Few Clouds
Visibility: 6 miles , 10 km
Cloud details: Few Clouds 2100 ft
2018/10/17 05:50 EGKK 170550Z VRB02KT 9999 MIFG FEW021 08/08 Q1018
 
EGVN - Brize Norton Raf, United Kingdom
Distance from station: NNW 41mi, 66km
Updated: Wed, 17-Oct-2018 06:50 BST
Overcast
Overcast
 Wind from SW
Wind: SW 2 mph , 4 km/h
Temperature: 54°F , 12°C
Dew Point: 54°F , 12°C
Humidity: 100%
Barometer: 30.03 inHg , 1017 hPa
Clouds: Overcast
Visibility: 6 miles , 10 km
Cloud details: Overcast 600 ft
2018/10/17 05:50 EGVN 170550Z 23002KT 9999 OVC006 12/12 Q1017 YLO1 BECMG BKN014 GRN
EGKA - Shoreham-By-Sea, United Kingdom
Distance from station: SE 45mi, 73km
Updated: Tue, 16-Oct-2018 19:50 BST
NOT Current
Mostly Cloudy
Mostly Cloudy
 Wind from SW
Wind: SW 10 mph , 17 km/h
Temperature: 59°F , 15°C
Dew Point: 55°F , 13°C
Humidity: 88%
Barometer: 30.03 inHg , 1017 hPa
Clouds: Mostly Cloudy
Visibility: 6 miles , 10 km
Cloud details: Few Clouds 1400 ft
Mostly Cloudy 3000 ft
2018/10/16 18:50 EGKA 161850Z 23009KT 9999 FEW014 BKN030 15/13 Q1017
 
EGHH - Bournemouth Airp, United Kingdom
Distance from station: SW 46mi, 75km
Updated: Wed, 17-Oct-2018 06:50 BST
Mostly Cloudy
Mostly Cloudy
 Wind from SW
Wind: SW 3 mph , 6 km/h
Temperature: 55°F , 13°C
Dew Point: 55°F , 13°C
Humidity: 100%
Barometer: 30.03 inHg , 1017 hPa
Clouds: Mostly Cloudy
Visibility: 6 miles , 10 km
Cloud details: Partly Cloudy 1400 ft
Mostly Cloudy 3400 ft
2018/10/17 05:50 EGHH 170550Z 23003KT 9999 SCT014 BKN034 13/13 Q1017
EGKB - Biggin Hill, United Kingdom
Distance from station: E 48mi, 77km
Updated: Wed, 17-Oct-2018 06:50 BST
Clear
Clear
 Wind from SSW
Wind: SSW 8 mph , 13 km/h
Temperature: 50°F , 10°C
Wind Chill: 47°F , 8°C
Dew Point: 48°F , 9°C
Humidity: 94%
Barometer: 30.06 inHg , 1018 hPa
Summary: Clear
Visibility: greater than 7 miles , 10 km
2018/10/17 05:50 EGKB 170550Z 20007KT CAVOK 10/09 Q1018

Metar display script from Saratoga-Weather.org